createdAt,value
2023-02-23T00:00:48.481Z,8.39
2023-02-23T00:03:15.017Z,8.26
2023-02-23T00:05:42.530Z,8.26
2023-02-23T00:08:10.287Z,8.23
2023-02-23T00:10:36.822Z,8.07
2023-02-23T00:13:04.259Z,8.00
2023-02-23T00:15:30.760Z,7.95
2023-02-23T00:17:57.645Z,8.02
2023-02-23T00:20:26.887Z,8.00
2023-02-23T00:22:55.162Z,7.98
2023-02-23T00:25:22.672Z,7.93
2023-02-23T00:27:49.576Z,7.99
2023-02-23T00:30:17.873Z,8.00
2023-02-23T00:32:49.535Z,8.06
2023-02-23T00:35:18.358Z,8.42
2023-02-23T00:37:45.632Z,8.46
2023-02-23T00:40:16.203Z,8.21
2023-02-23T00:42:44.848Z,8.08
2023-02-23T00:45:12.381Z,7.98
2023-02-23T00:47:41.617Z,8.07
2023-02-23T00:50:12.152Z,8.14
2023-02-23T00:52:39.509Z,8.21
2023-02-23T00:55:07.804Z,8.15
2023-02-23T00:57:35.352Z,7.98
2023-02-23T01:00:12.423Z,8.00
2023-02-23T01:02:38.928Z,8.09
2023-02-23T01:05:05.936Z,8.06
2023-02-23T01:07:32.510Z,8.17
2023-02-23T01:09:58.937Z,8.18
2023-02-23T01:12:25.403Z,8.29
2023-02-23T01:14:52.830Z,8.24
2023-02-23T01:17:19.222Z,8.28
2023-02-23T01:19:45.736Z,8.53
2023-02-23T01:22:12.189Z,8.41
2023-02-23T01:24:40.182Z,8.28
2023-02-23T01:27:06.700Z,8.21
2023-02-23T01:29:33.785Z,8.35
2023-02-23T01:32:03.256Z,8.56
2023-02-23T01:34:30.862Z,8.50
2023-02-23T01:36:57.331Z,8.45
2023-02-23T01:39:23.842Z,8.62
2023-02-23T01:41:51.875Z,8.70
2023-02-23T01:44:55.669Z,8.90
2023-02-23T01:47:23.204Z,9.02
2023-02-23T01:49:50.221Z,8.96
2023-02-23T01:52:17.415Z,8.81
2023-02-23T01:54:50.647Z,8.83
2023-02-23T01:57:19.910Z,8.75
2023-02-23T01:59:49.625Z,8.60
2023-02-23T02:02:18.492Z,8.42
2023-02-23T02:04:45.751Z,8.15
2023-02-23T02:07:15.899Z,8.30
2023-02-23T02:10:04.043Z,8.39
2023-02-23T02:12:30.852Z,8.43
2023-02-23T02:14:59.639Z,8.49
2023-02-23T02:17:34.878Z,8.75
2023-02-23T02:20:53.558Z,8.85
2023-02-23T02:24:01.600Z,8.97
2023-02-23T02:26:36.688Z,8.78
2023-02-23T02:29:40.413Z,8.77
2023-02-23T02:32:41.231Z,8.78
2023-02-23T02:35:49.835Z,8.77
2023-02-23T02:38:28.740Z,8.69
2023-02-23T02:41:03.542Z,8.45
2023-02-23T02:43:39.890Z,8.25
2023-02-23T02:46:13.951Z,8.33
2023-02-23T02:48:48.151Z,8.31
2023-02-23T02:51:23.645Z,8.66
2023-02-23T02:53:58.419Z,8.63
2023-02-23T02:56:26.760Z,8.55
2023-02-23T02:58:55.385Z,8.76
2023-02-23T03:01:39.983Z,8.88
2023-02-23T03:04:39.798Z,8.66
2023-02-23T03:07:34.372Z,8.75
2023-02-23T03:10:27.979Z,8.58
2023-02-23T03:13:19.094Z,8.60
2023-02-23T03:16:16.673Z,8.63
2023-02-23T03:19:17.206Z,8.33
2023-02-23T03:22:08.901Z,8.43
2023-02-23T03:25:00.020Z,8.56
2023-02-23T03:27:54.630Z,8.51
2023-02-23T03:30:43.854Z,8.60
2023-02-23T03:33:34.273Z,8.53
2023-02-23T03:36:26.610Z,8.36
2023-02-23T03:39:17.703Z,8.10
2023-02-23T03:42:04.950Z,8.08
2023-02-23T03:44:55.217Z,8.11
2023-02-23T03:47:45.183Z,8.14
2023-02-23T03:50:35.949Z,7.91
2023-02-23T03:53:22.954Z,7.90
2023-02-23T03:56:13.088Z,7.87
2023-02-23T03:59:04.736Z,7.71
2023-02-23T04:01:51.448Z,7.67
2023-02-23T04:04:38.328Z,7.76
2023-02-23T04:07:24.956Z,7.79
2023-02-23T04:10:10.043Z,7.80
2023-02-23T04:13:02.492Z,7.79
2023-02-23T04:15:36.421Z,7.91
2023-02-23T04:18:04.649Z,7.90
2023-02-23T04:20:31.290Z,8.00
2023-02-23T04:22:58.114Z,7.90
2023-02-23T04:25:26.108Z,7.79
2023-02-23T04:27:53.085Z,7.82
2023-02-23T04:30:20.042Z,7.83
2023-02-23T04:32:46.542Z,7.64
2023-02-23T04:35:13.666Z,7.56
2023-02-23T04:37:40.067Z,7.34
2023-02-23T04:40:07.753Z,7.17
2023-02-23T04:42:34.145Z,7.17
2023-02-23T04:45:00.619Z,7.19
2023-02-23T04:47:27.063Z,7.24
2023-02-23T04:49:53.568Z,7.40
2023-02-23T04:52:20.614Z,7.24
2023-02-23T04:54:47.420Z,7.08
2023-02-23T04:57:13.852Z,7.01
2023-02-23T04:59:40.837Z,7.00
2023-02-23T05:02:07.471Z,6.97
2023-02-23T05:04:34.542Z,7.17
2023-02-23T05:07:01.045Z,7.18
2023-02-23T05:09:28.047Z,7.44
2023-02-23T05:11:54.830Z,7.63
2023-02-23T05:14:29.067Z,7.64
2023-02-23T05:16:57.205Z,7.47
2023-02-23T05:19:24.075Z,7.50
2023-02-23T05:21:50.518Z,7.67
2023-02-23T05:24:17.629Z,7.81
2023-02-23T05:26:44.786Z,7.73
2023-02-23T05:29:11.598Z,7.85
2023-02-23T05:31:38.201Z,7.98
2023-02-23T05:34:04.817Z,8.05
2023-02-23T05:36:31.265Z,8.18
2023-02-23T05:38:57.760Z,8.14
2023-02-23T05:41:24.172Z,8.19
2023-02-23T05:43:52.922Z,8.07
2023-02-23T05:46:21.628Z,8.01
2023-02-23T05:48:48.112Z,7.90
2023-02-23T05:51:15.559Z,7.86
2023-02-23T05:53:42.478Z,8.00
2023-02-23T05:56:12.295Z,8.08
2023-02-23T05:58:38.801Z,7.98
2023-02-23T06:01:05.980Z,8.00
2023-02-23T06:03:33.194Z,8.16
2023-02-23T06:05:59.647Z,8.79
2023-02-23T06:08:39.644Z,9.23
2023-02-23T06:11:06.380Z,9.54
2023-02-23T06:13:33.020Z,9.69
2023-02-23T06:15:59.788Z,9.57
2023-02-23T06:18:27.778Z,9.60
2023-02-23T06:20:54.750Z,9.50
2023-02-23T06:23:21.279Z,9.43
2023-02-23T06:25:47.730Z,9.57
2023-02-23T06:28:14.559Z,9.25
2023-02-23T06:30:41.183Z,9.08
2023-02-23T06:33:07.773Z,8.97
2023-02-23T06:35:35.411Z,8.79
2023-02-23T06:38:02.948Z,8.52
2023-02-23T06:40:29.987Z,8.51
2023-02-23T06:42:56.762Z,8.81
2023-02-23T06:45:23.271Z,8.96
2023-02-23T06:47:53.011Z,8.65
2023-02-23T06:50:19.858Z,8.15
2023-02-23T06:52:48.016Z,7.81
2023-02-23T06:55:14.895Z,7.59
2023-02-23T06:57:41.891Z,7.44
2023-02-23T07:00:09.790Z,7.39
2023-02-23T07:02:36.828Z,7.36
2023-02-23T07:05:03.813Z,7.30
2023-02-23T07:07:30.206Z,7.42
2023-02-23T07:09:57.254Z,7.52
2023-02-23T07:12:23.920Z,7.48
2023-02-23T07:14:50.378Z,7.57
2023-02-23T07:17:17.263Z,7.58
2023-02-23T07:19:44.027Z,7.73
2023-02-23T07:22:10.488Z,7.72
2023-02-23T07:24:37.756Z,7.78
2023-02-23T07:27:04.871Z,7.86
2023-02-23T07:29:31.318Z,7.98
2023-02-23T07:31:57.812Z,8.06
2023-02-23T07:34:24.523Z,8.10
2023-02-23T07:36:50.972Z,8.19
2023-02-23T07:39:17.374Z,8.32
2023-02-23T07:41:43.877Z,8.48
2023-02-23T07:44:18.632Z,8.52
2023-02-23T07:46:45.648Z,8.52
2023-02-23T07:49:12.379Z,8.65
2023-02-23T07:51:39.319Z,8.76
2023-02-23T07:54:06.038Z,8.82
2023-02-23T07:56:32.959Z,8.95
2023-02-23T07:58:59.456Z,9.04
2023-02-23T08:01:26.766Z,9.07
2023-02-23T08:03:53.287Z,9.06
2023-02-23T08:06:20.307Z,9.08
2023-02-23T08:08:46.718Z,9.10
2023-02-23T08:11:13.427Z,9.15
2023-02-23T08:13:39.858Z,9.12
2023-02-23T08:16:07.045Z,9.17
2023-02-23T08:18:34.631Z,9.29
2023-02-23T08:21:03.178Z,9.33
2023-02-23T08:23:30.841Z,9.42
2023-02-23T08:26:03.441Z,9.39
2023-02-23T08:28:30.633Z,9.54
2023-02-23T08:30:58.502Z,9.59
2023-02-23T08:33:25.087Z,9.65
2023-02-23T08:35:52.812Z,9.61
2023-02-23T08:38:19.312Z,9.72
2023-02-23T08:40:45.741Z,9.78
2023-02-23T08:43:12.126Z,9.81
2023-02-23T08:45:38.846Z,9.74
2023-02-23T08:48:06.034Z,9.71
2023-02-23T08:50:32.502Z,9.76
2023-02-23T08:52:59.511Z,9.84
2023-02-23T08:55:26.353Z,9.83
2023-02-23T08:57:52.951Z,9.92
2023-02-23T09:00:20.511Z,9.96
2023-02-23T09:02:49.770Z,9.94
2023-02-23T09:05:17.137Z,10.19
2023-02-23T09:07:44.990Z,10.25
2023-02-23T09:10:14.131Z,10.14
2023-02-23T09:12:40.615Z,10.03
2023-02-23T09:15:08.372Z,10.19
2023-02-23T09:17:34.800Z,10.24
2023-02-23T09:20:01.355Z,10.16
2023-02-23T09:22:27.757Z,10.29
2023-02-23T09:24:54.156Z,10.40
2023-02-23T09:27:21.213Z,10.30
2023-02-23T09:29:47.848Z,10.49
2023-02-23T09:32:14.292Z,10.57
2023-02-23T09:34:40.781Z,10.46
2023-02-23T09:37:07.896Z,10.43
2023-02-23T09:39:38.394Z,10.21
2023-02-23T09:42:15.618Z,10.17
2023-02-23T09:44:57.941Z,10.46
2023-02-23T09:47:32.037Z,10.57
2023-02-23T09:50:02.210Z,10.58
2023-02-23T09:52:39.121Z,10.67
2023-02-23T09:55:10.174Z,10.59
2023-02-23T09:57:39.502Z,10.79
2023-02-23T10:00:16.689Z,10.74
2023-02-23T10:02:57.225Z,10.65
2023-02-23T10:05:27.441Z,10.82
2023-02-23T10:07:59.420Z,10.82
2023-02-23T10:10:35.025Z,10.66
2023-02-23T10:13:09.513Z,10.77
2023-02-23T10:15:44.720Z,10.98
2023-02-23T10:18:35.913Z,10.98
2023-02-23T10:21:16.772Z,11.32
2023-02-23T10:23:48.899Z,11.37
2023-02-23T10:26:19.816Z,11.14
2023-02-23T10:28:46.903Z,11.24
2023-02-23T10:31:28.543Z,11.31
2023-02-23T10:33:58.567Z,11.05
2023-02-23T10:36:34.578Z,10.92
2023-02-23T10:39:01.579Z,11.10
2023-02-23T10:41:27.989Z,11.35
2023-02-23T10:43:54.687Z,11.22
2023-02-23T10:46:29.062Z,10.94
2023-02-23T10:48:56.576Z,11.14
2023-02-23T10:51:28.743Z,11.12
2023-02-23T10:53:55.257Z,11.25
2023-02-23T10:56:23.122Z,11.30
2023-02-23T10:58:51.457Z,11.40
2023-02-23T11:01:35.402Z,11.31
2023-02-23T11:04:15.860Z,11.41
2023-02-23T11:06:42.852Z,11.55
2023-02-23T11:09:24.838Z,11.84
2023-02-23T11:11:57.649Z,11.77
2023-02-23T11:14:27.017Z,11.80
2023-02-23T11:16:55.865Z,11.86
2023-02-23T11:19:26.343Z,11.59
2023-02-23T11:21:52.849Z,11.41
2023-02-23T11:24:24.487Z,11.42
2023-02-23T11:26:53.814Z,11.48
2023-02-23T11:29:32.694Z,11.77
2023-02-23T11:32:09.578Z,12.04
2023-02-23T11:34:40.001Z,11.76
2023-02-23T11:37:19.357Z,11.90
2023-02-23T11:39:51.729Z,11.36
2023-02-23T11:42:20.129Z,11.63
2023-02-23T11:45:02.264Z,11.85
2023-02-23T11:47:31.139Z,11.84
2023-02-23T11:49:57.908Z,11.87
2023-02-23T11:52:27.164Z,11.98
2023-02-23T11:54:57.020Z,11.97
2023-02-23T11:57:27.542Z,12.11
2023-02-23T11:59:55.950Z,12.82
2023-02-23T12:02:25.005Z,12.38
2023-02-23T12:05:01.619Z,12.16
2023-02-23T12:07:40.890Z,12.51
2023-02-23T12:10:14.442Z,12.45
2023-02-23T12:12:50.909Z,12.30
2023-02-23T12:15:26.936Z,12.49
2023-02-23T12:17:57.683Z,12.73
2023-02-23T12:20:28.874Z,12.55
2023-02-23T12:22:59.228Z,12.45
2023-02-23T12:25:29.351Z,12.03
2023-02-23T12:28:18.173Z,12.20
2023-02-23T12:30:50.188Z,12.41
2023-02-23T12:33:22.362Z,12.30
2023-02-23T12:35:55.017Z,12.33
2023-02-23T12:38:33.364Z,12.13
2023-02-23T12:41:06.211Z,11.93
2023-02-23T12:43:39.027Z,11.98
2023-02-23T12:46:11.740Z,11.75
2023-02-23T12:48:48.250Z,11.62
2023-02-23T12:51:27.206Z,11.39
2023-02-23T12:53:53.708Z,11.43
2023-02-23T12:56:35.152Z,11.19
2023-02-23T12:59:21.202Z,11.27
2023-02-23T13:01:54.243Z,11.36
2023-02-23T13:04:39.489Z,11.37
2023-02-23T13:07:16.255Z,11.56
2023-02-23T13:09:53.996Z,11.43
2023-02-23T13:12:38.447Z,11.65
2023-02-23T13:15:19.352Z,11.70
2023-02-23T13:17:55.771Z,11.50
2023-02-23T13:20:30.294Z,11.71
2023-02-23T13:23:08.784Z,11.76
2023-02-23T13:25:44.482Z,11.85
2023-02-23T13:28:17.953Z,11.81
2023-02-23T13:30:46.725Z,11.99
2023-02-23T13:33:34.964Z,12.07
2023-02-23T13:36:12.056Z,12.34
2023-02-23T13:38:45.857Z,12.32
2023-02-23T13:41:28.869Z,12.56
2023-02-23T13:44:01.546Z,12.48
2023-02-23T13:46:36.577Z,12.28
2023-02-23T13:49:16.109Z,12.08
2023-02-23T13:51:47.134Z,12.04
2023-02-23T13:54:24.724Z,12.24
2023-02-23T13:56:55.348Z,12.11
2023-02-23T13:59:23.458Z,12.13
2023-02-23T14:01:52.764Z,12.25
2023-02-23T14:04:22.887Z,12.26
2023-02-23T14:06:55.855Z,12.09
2023-02-23T14:09:29.504Z,12.25
2023-02-23T14:12:02.946Z,12.35
2023-02-23T14:14:44.716Z,12.31
2023-02-23T14:17:38.095Z,12.00
2023-02-23T14:20:24.326Z,12.17
2023-02-23T14:23:26.099Z,12.48
2023-02-23T14:26:10.812Z,12.59
2023-02-23T14:28:39.745Z,12.53
2023-02-23T14:31:19.904Z,12.54
2023-02-23T14:33:56.293Z,12.06
2023-02-23T14:36:37.680Z,11.96
2023-02-23T14:39:08.950Z,11.84
2023-02-23T14:41:43.496Z,11.76
2023-02-23T14:44:28.299Z,11.71
2023-02-23T14:47:01.064Z,11.52
2023-02-23T14:49:30.811Z,11.49
2023-02-23T14:51:59.898Z,11.32
2023-02-23T14:54:30.906Z,11.22
2023-02-23T14:57:00.094Z,11.21
2023-02-23T14:59:28.961Z,11.25
2023-02-23T15:01:59.806Z,11.22
2023-02-23T15:04:29.173Z,11.11
2023-02-23T15:06:58.510Z,11.03
2023-02-23T15:09:32.381Z,10.83
2023-02-23T15:12:10.985Z,10.80
2023-02-23T15:14:38.251Z,10.72
2023-02-23T15:17:05.235Z,10.60
2023-02-23T15:19:35.136Z,10.54
2023-02-23T15:22:04.674Z,10.42
2023-02-23T15:24:40.738Z,10.27
2023-02-23T15:27:16.806Z,10.33
2023-02-23T15:29:43.414Z,10.30
2023-02-23T15:32:17.512Z,10.26
2023-02-23T15:34:44.338Z,10.29
2023-02-23T15:37:19.152Z,10.31
2023-02-23T15:39:52.546Z,10.39
2023-02-23T15:42:25.126Z,10.44
2023-02-23T15:45:16.225Z,10.35
2023-02-23T15:47:52.211Z,10.34
2023-02-23T15:50:36.002Z,10.24
2023-02-23T15:53:08.176Z,10.17
2023-02-23T15:55:37.222Z,10.28
2023-02-23T15:58:17.255Z,10.33
2023-02-23T16:00:50.503Z,10.35
2023-02-23T16:03:23.773Z,10.28
2023-02-23T16:05:59.003Z,10.40
2023-02-23T16:08:26.463Z,10.45
2023-02-23T16:11:01.639Z,10.52
2023-02-23T16:13:29.076Z,10.62
2023-02-23T16:15:56.968Z,10.67
2023-02-23T16:18:35.897Z,10.61
2023-02-23T16:21:05.215Z,10.52
2023-02-23T16:23:36.383Z,10.49
2023-02-23T16:26:10.755Z,10.45
2023-02-23T16:28:45.558Z,10.35
2023-02-23T16:31:20.257Z,10.31
2023-02-23T16:33:54.161Z,10.27
2023-02-23T16:36:23.625Z,10.20
2023-02-23T16:38:59.823Z,10.22
2023-02-23T16:41:29.021Z,10.23
2023-02-23T16:44:00.577Z,10.17
2023-02-23T16:46:31.829Z,10.16
2023-02-23T16:49:04.513Z,10.13
2023-02-23T16:51:34.893Z,9.99
2023-02-23T16:54:04.686Z,9.90
2023-02-23T16:56:31.921Z,9.80
2023-02-23T16:59:02.691Z,9.63
2023-02-23T17:01:30.292Z,9.47
2023-02-23T17:03:58.387Z,9.20
2023-02-23T17:06:25.623Z,9.17
2023-02-23T17:08:57.955Z,9.04
2023-02-23T17:11:25.990Z,8.93
2023-02-23T17:13:53.016Z,8.83
2023-02-23T17:16:24.151Z,8.72
2023-02-23T17:18:51.664Z,8.62
2023-02-23T17:21:23.374Z,8.44
2023-02-23T17:23:51.577Z,8.33
2023-02-23T17:26:21.571Z,8.27
2023-02-23T17:28:51.680Z,8.20
2023-02-23T17:31:22.293Z,8.16
2023-02-23T17:33:52.781Z,8.07
2023-02-23T17:36:19.468Z,7.97
2023-02-23T17:38:46.188Z,8.06
2023-02-23T17:41:16.012Z,8.04
2023-02-23T17:43:42.814Z,8.05
2023-02-23T17:46:10.766Z,7.93
2023-02-23T17:48:37.291Z,7.81
2023-02-23T17:51:08.290Z,7.69
2023-02-23T17:53:35.588Z,7.62
2023-02-23T17:56:02.369Z,7.55
2023-02-23T17:58:28.930Z,7.53
2023-02-23T18:00:56.424Z,7.50
2023-02-23T18:03:23.917Z,7.53
2023-02-23T18:05:52.015Z,7.49
2023-02-23T18:08:19.577Z,7.39
2023-02-23T18:10:51.006Z,7.33
2023-02-23T18:13:18.040Z,7.26
2023-02-23T18:15:48.982Z,7.40
2023-02-23T18:18:16.692Z,7.32
2023-02-23T18:20:48.956Z,7.40
2023-02-23T18:23:16.205Z,7.40
2023-02-23T18:25:43.671Z,7.36
2023-02-23T18:28:14.435Z,7.35
2023-02-23T18:30:42.496Z,7.28
2023-02-23T18:33:12.450Z,7.17
2023-02-23T18:35:44.432Z,7.04
2023-02-23T18:38:13.128Z,7.00
2023-02-23T18:40:40.358Z,7.06
2023-02-23T18:43:11.050Z,7.08
2023-02-23T18:45:38.856Z,7.00
2023-02-23T18:48:09.707Z,6.90
2023-02-23T18:50:37.996Z,6.85
2023-02-23T18:53:05.656Z,6.86
2023-02-23T18:55:32.291Z,6.82
2023-02-23T18:57:59.284Z,6.73
2023-02-23T19:00:54.638Z,6.73
2023-02-23T19:03:21.079Z,6.72
2023-02-23T19:05:52.115Z,6.66
2023-02-23T19:08:18.854Z,6.61
2023-02-23T19:10:45.549Z,6.60
2023-02-23T19:13:12.080Z,6.58
2023-02-23T19:15:39.974Z,6.47
2023-02-23T19:18:07.062Z,6.26
2023-02-23T19:20:34.904Z,6.11
2023-02-23T19:23:02.171Z,5.97
2023-02-23T19:25:28.690Z,5.91
2023-02-23T19:27:56.172Z,5.79
2023-02-23T19:30:22.693Z,5.73
2023-02-23T19:32:49.700Z,5.71
2023-02-23T19:35:18.633Z,5.73
2023-02-23T19:37:49.914Z,5.69
2023-02-23T19:40:23.141Z,5.63
2023-02-23T19:42:52.346Z,5.61
2023-02-23T19:45:19.331Z,5.61
2023-02-23T19:47:46.091Z,5.57
2023-02-23T19:50:16.079Z,5.52
2023-02-23T19:52:44.584Z,5.58
2023-02-23T19:55:11.630Z,5.58
2023-02-23T19:57:41.635Z,5.59
2023-02-23T20:00:11.324Z,5.57
2023-02-23T20:02:42.914Z,5.63
2023-02-23T20:05:10.952Z,5.71
2023-02-23T20:07:38.162Z,5.65
2023-02-23T20:10:07.718Z,5.57
2023-02-23T20:12:34.967Z,5.46
2023-02-23T20:15:02.125Z,5.37
2023-02-23T20:17:31.838Z,5.35
2023-02-23T20:19:58.425Z,5.40
2023-02-23T20:22:24.910Z,5.38
2023-02-23T20:24:51.503Z,5.47
2023-02-23T20:27:21.922Z,5.53
2023-02-23T20:29:49.915Z,5.53
2023-02-23T20:32:19.419Z,5.63
2023-02-23T20:34:46.912Z,5.72
2023-02-23T20:37:13.722Z,5.67
2023-02-23T20:39:40.442Z,5.70
2023-02-23T20:42:06.903Z,5.65
2023-02-23T20:44:34.698Z,5.61
2023-02-23T20:47:02.412Z,5.74
2023-02-23T20:49:34.343Z,5.67
2023-02-23T20:52:02.462Z,5.75
2023-02-23T20:54:29.114Z,5.77
2023-02-23T20:56:58.596Z,5.88
2023-02-23T20:59:28.658Z,5.94
2023-02-23T21:01:55.853Z,6.03
2023-02-23T21:04:22.562Z,6.06
2023-02-23T21:06:49.192Z,5.94
2023-02-23T21:09:16.599Z,5.83
2023-02-23T21:11:44.019Z,5.73
2023-02-23T21:14:10.607Z,5.80
2023-02-23T21:16:45.625Z,5.88
2023-02-23T21:19:20.417Z,5.91
2023-02-23T21:21:48.780Z,5.95
2023-02-23T21:24:18.821Z,5.98
2023-02-23T21:26:46.021Z,5.88
2023-02-23T21:29:14.076Z,5.85
2023-02-23T21:31:41.603Z,5.88
2023-02-23T21:34:09.134Z,5.84
2023-02-23T21:36:37.514Z,5.87
2023-02-23T21:39:05.976Z,5.77
2023-02-23T21:41:33.257Z,5.81
2023-02-23T21:44:04.481Z,5.85
2023-02-23T21:46:31.873Z,5.80
2023-02-23T21:48:58.662Z,5.74
2023-02-23T21:51:25.851Z,5.72
2023-02-23T21:53:57.121Z,5.83
2023-02-23T21:56:23.696Z,5.86
2023-02-23T21:58:52.247Z,5.92
2023-02-23T22:01:20.939Z,5.87
2023-02-23T22:03:48.199Z,5.83
2023-02-23T22:06:17.299Z,5.87
2023-02-23T22:08:44.156Z,5.74
2023-02-23T22:11:16.458Z,5.66
2023-02-23T22:13:43.824Z,5.63
2023-02-23T22:16:10.768Z,5.62
2023-02-23T22:18:37.186Z,5.57
2023-02-23T22:21:04.033Z,5.53
2023-02-23T22:23:31.268Z,5.47
2023-02-23T22:25:58.801Z,5.48
2023-02-23T22:28:25.986Z,5.48
2023-02-23T22:30:52.590Z,5.46
2023-02-23T22:33:19.470Z,5.44
2023-02-23T22:35:46.420Z,5.41
2023-02-23T22:38:13.423Z,5.31
2023-02-23T22:40:41.625Z,5.16
2023-02-23T22:43:08.448Z,5.02
2023-02-23T22:45:35.987Z,4.97
2023-02-23T22:48:05.333Z,4.98
2023-02-23T22:50:32.969Z,5.02
2023-02-23T22:53:00.697Z,5.10
2023-02-23T22:55:28.538Z,5.17
2023-02-23T22:57:55.312Z,5.25
2023-02-23T23:00:27.299Z,5.21
2023-02-23T23:02:55.179Z,5.27
2023-02-23T23:05:21.590Z,6.85
2023-02-23T23:07:48.161Z,8.17
2023-02-23T23:10:16.816Z,8.57
2023-02-23T23:12:43.587Z,8.60
2023-02-23T23:15:13.945Z,8.44
2023-02-23T23:17:45.559Z,8.41
2023-02-23T23:20:13.896Z,8.43
2023-02-23T23:22:40.665Z,8.20
2023-02-23T23:25:13.880Z,8.25
2023-02-23T23:27:42.288Z,8.24
2023-02-23T23:30:10.557Z,8.15
2023-02-23T23:32:38.852Z,8.05
2023-02-23T23:35:10.243Z,7.93
2023-02-23T23:37:39.309Z,8.51
2023-02-23T23:40:13.074Z,8.18
2023-02-23T23:42:41.506Z,8.25
2023-02-23T23:45:09.380Z,8.26
2023-02-23T23:47:35.974Z,8.08
2023-02-23T23:50:02.784Z,8.06
2023-02-23T23:52:30.838Z,7.97
2023-02-23T23:54:58.079Z,8.04
2023-02-23T23:57:29.994Z,7.95
2023-02-23T23:59:56.408Z,7.98
